Time;durP1;ratioP1;P1;durP2;ratioP2;P2;SDS_P1;SDS_P2;PMS_P1;PMS_P2;Temp;Humidity;BMP_temperature;BMP_pressure;BME280_temperature;BME280_humidity;BME280_pressure;Samples;Min_cycle;Max_cycle;Signal;HPM_P1;HPM_P2
2022/07/06 00:01:20;;;;;;;3.75;1.70;;;;;;;21.79;35.83;92775.78;5033836;28;20046;-76
2022/07/06 00:03:46;;;;;;;3.00;1.60;;;;;;;21.74;36.50;92770.72;5015001;28;20068;-76
2022/07/06 00:06:12;;;;;;;6.45;1.70;;;;;;;21.77;36.74;92771.91;5032928;28;20064;-76
2022/07/06 00:08:38;;;;;;;4.25;1.63;;;;;;;21.76;36.88;92760.50;5033289;28;20129;-76
2022/07/06 00:11:04;;;;;;;4.68;1.80;;;;;;;21.67;37.45;92770.59;5033438;28;20471;-76
2022/07/06 00:13:30;;;;;;;3.65;1.70;;;;;;;21.53;37.75;92778.28;5013489;28;20060;-75
2022/07/06 00:15:56;;;;;;;5.28;1.60;;;;;;;21.52;38.22;92763.41;5015274;28;20064;-76
2022/07/06 00:18:21;;;;;;;4.47;1.70;;;;;;;21.47;37.49;92769.78;5033119;28;20209;-76
2022/07/06 00:20:47;;;;;;;3.05;1.50;;;;;;;21.40;37.58;92773.03;5033110;28;20033;-76
2022/07/06 00:23:13;;;;;;;3.33;1.70;;;;;;;21.33;38.01;92775.53;5033034;28;20042;-76
2022/07/06 00:25:39;;;;;;;3.25;1.70;;;;;;;21.28;38.55;92783.78;5012551;28;20046;-76
2022/07/06 00:28:04;;;;;;;4.32;1.83;;;;;;;21.24;37.85;92766.94;5014594;28;20610;-76
2022/07/06 00:30:30;;;;;;;4.18;1.90;;;;;;;21.18;38.32;92773.66;5015300;28;20033;-76
2022/07/06 00:32:58;;;;;;;4.93;1.80;;;;;;;21.16;38.80;92779.31;5006213;28;20129;-76
2022/07/06 00:35:24;;;;;;;3.13;1.70;;;;;;;21.14;39.20;92767.47;5010578;28;20038;-76
2022/07/06 00:37:50;;;;;;;2.85;1.60;;;;;;;21.08;38.96;92779.50;4994514;28;20399;-76
2022/07/06 00:40:17;;;;;;;2.85;1.80;;;;;;;21.13;38.25;92782.66;4979238;28;20053;-76
2022/07/06 00:42:46;;;;;;;3.05;1.83;;;;;;;21.17;37.57;92783.53;5012739;28;20030;-76
2022/07/06 00:45:14;;;;;;;3.83;2.30;;;;;;;21.20;37.62;92788.16;4993866;28;20045;-76
2022/07/06 00:47:41;;;;;;;3.40;1.63;;;;;;;21.24;37.31;92780.25;5010517;28;20061;-76
2022/07/06 00:50:15;;;;;;;3.83;1.80;;;;;;;21.33;36.77;92774.75;4994860;28;20037;-76
2022/07/06 00:52:47;;;;;;;3.25;1.48;;;;;;;21.31;37.14;92769.00;4978430;28;20507;-76
2022/07/06 00:55:15;;;;;;;5.30;1.80;;;;;;;21.29;37.02;92774.66;5012254;28;20026;-76
2022/07/06 00:57:42;;;;;;;3.53;1.70;;;;;;;21.29;37.50;92779.22;4999089;28;20030;-76
2022/07/06 01:00:13;;;;;;;3.25;1.73;;;;;;;21.24;37.86;92771.50;4978877;28;20381;-76
2022/07/06 01:02:39;;;;;;;3.60;1.80;;;;;;;21.31;37.42;92782.31;5011865;28;20124;-76
2022/07/06 01:05:07;;;;;;;3.05;1.75;;;;;;;21.29;37.73;92785.31;5012348;28;20177;-76
2022/07/06 01:07:34;;;;;;;3.97;1.80;;;;;;;21.29;37.75;92785.31;4977291;28;20181;-76
2022/07/06 01:10:00;;;;;;;3.05;1.60;;;;;;;21.27;37.73;92782.22;4979875;28;20049;-76
2022/07/06 01:12:26;;;;;;;3.33;1.73;;;;;;;21.25;37.95;92787.13;4994822;28;20384;-76
2022/07/06 01:14:52;;;;;;;5.22;2.00;;;;;;;21.33;37.43;92791.50;4994813;28;20052;-76
2022/07/06 01:17:18;;;;;;;6.30;1.67;;;;;;;21.37;37.60;92778.28;4994799;28;20045;-76
2022/07/06 01:19:44;;;;;;;6.63;1.60;;;;;;;21.30;37.86;92783.41;4994280;28;20029;-75
2022/07/06 01:22:10;;;;;;;5.18;1.80;;;;;;;21.47;37.52;92779.66;5010652;28;20038;-76
2022/07/06 01:24:37;;;;;;;8.05;2.13;;;;;;;21.34;37.72;92784.28;4994330;28;20124;-76
2022/07/06 01:27:10;;;;;;;4.22;1.88;;;;;;;21.52;36.37;92782.03;4994241;28;20061;-75
2022/07/06 01:29:36;;;;;;;3.00;1.70;;;;;;;21.34;37.46;92786.94;5012064;28;20045;-76
2022/07/06 01:32:02;;;;;;;1.88;1.30;;;;;;;21.38;38.21;92783.25;4992709;28;20022;-76
2022/07/06 01:34:27;;;;;;;3.28;1.60;;;;;;;21.31;37.89;92793.72;5025683;28;20049;-76
2022/07/06 01:36:54;;;;;;;5.78;1.70;;;;;;;21.24;37.90;92788.25;5013917;28;20037;-76
2022/07/06 01:39:20;;;;;;;2.80;1.60;;;;;;;21.18;38.09;92794.94;5013913;28;20518;-76
2022/07/06 01:41:46;;;;;;;4.97;1.75;;;;;;;21.12;38.25;92802.44;5013444;28;20037;-76
2022/07/06 01:44:11;;;;;;;2.97;1.60;;;;;;;21.08;38.42;92803.47;5032101;28;20438;-76
2022/07/06 01:46:38;;;;;;;3.53;1.80;;;;;;;21.12;38.49;92806.97;5014102;28;20491;-76
2022/07/06 01:49:05;;;;;;;3.83;1.60;;;;;;;21.05;38.50;92807.56;4994016;28;20038;-75
2022/07/06 01:51:31;;;;;;;3.00;1.58;;;;;;;21.18;37.87;92795.72;4987959;28;20034;-76
2022/07/06 01:53:58;;;;;;;3.55;1.75;;;;;;;21.06;38.54;92809.13;5013836;28;20041;-76
2022/07/06 01:56:25;;;;;;;3.58;1.70;;;;;;;21.01;38.48;92812.03;5013707;28;20103;-76
2022/07/06 01:58:55;;;;;;;6.30;1.73;;;;;;;21.16;37.37;92797.94;5013298;28;20049;-76
2022/07/06 02:01:22;;;;;;;4.70;1.90;;;;;;;21.08;38.01;92811.44;5012163;28;20045;-76
2022/07/06 02:03:48;;;;;;;4.55;1.80;;;;;;;21.03;38.01;92809.81;5013645;28;20033;-76
2022/07/06 02:06:13;;;;;;;5.28;2.10;;;;;;;20.97;39.10;92816.50;5013554;28;20033;-76
2022/07/06 02:08:41;;;;;;;3.63;1.70;;;;;;;20.89;39.37;92812.09;5013110;28;20526;-76
2022/07/06 02:11:08;;;;;;;2.92;1.70;;;;;;;20.86;39.19;92810.91;5012844;28;20025;-76
2022/07/06 02:13:37;;;;;;;4.68;1.80;;;;;;;20.86;39.29;92816.22;5012858;28;20088;-76
2022/07/06 02:16:05;;;;;;;5.55;1.80;;;;;;;20.85;39.07;92817.34;4997291;28;20064;-76
2022/07/06 02:18:30;;;;;;;3.33;1.80;;;;;;;20.87;38.94;92809.00;5013180;28;20037;-76
2022/07/06 02:20:56;;;;;;;5.15;1.83;;;;;;;20.82;39.46;92807.38;5013144;28;20044;-76
2022/07/06 02:23:22;;;;;;;4.25;2.00;;;;;;;20.75;39.58;92815.19;5012069;28;20382;-76
2022/07/06 02:25:49;;;;;;;2.90;1.70;;;;;;;20.72;39.66;92805.25;5013179;28;20040;-76
2022/07/06 02:28:15;;;;;;;2.88;1.77;;;;;;;20.68;39.71;92804.38;4988061;28;20034;-76
2022/07/06 02:30:41;;;;;;;3.53;1.70;;;;;;;20.65;39.55;92805.03;5026707;28;20048;-76
2022/07/06 02:33:06;;;;;;;3.28;1.70;;;;;;;20.64;39.92;92804.25;5011781;28;20111;-76
2022/07/06 02:35:32;;;;;;;3.55;1.80;;;;;;;20.59;39.76;92801.84;5012480;28;20037;-76
2022/07/06 02:37:59;;;;;;;6.53;1.88;;;;;;;20.58;40.11;92806.41;4997000;28;20042;-75
2022/07/06 02:40:24;;;;;;;4.10;1.80;;;;;;;20.56;39.59;92808.63;4993434;28;20475;-76
2022/07/06 02:42:50;;;;;;;3.22;1.60;;;;;;;20.56;39.48;92802.53;5009825;28;20042;-76
2022/07/06 02:45:17;;;;;;;3.33;1.60;;;;;;;20.56;39.27;92797.19;5026478;28;20041;-76
2022/07/06 02:47:42;;;;;;;4.20;1.73;;;;;;;20.54;39.32;92800.19;4996591;28;20045;-74
2022/07/06 02:50:08;;;;;;;4.53;1.50;;;;;;;20.53;39.85;92803.94;5012570;28;20041;-74
2022/07/06 02:52:34;;;;;;;3.13;1.88;;;;;;;20.50;39.66;92809.19;4996199;28;20042;-74
2022/07/06 02:55:01;;;;;;;3.67;2.00;;;;;;;20.49;39.51;92810.28;5012091;28;20034;-75
2022/07/06 02:57:27;;;;;;;3.50;1.55;;;;;;;20.49;39.46;92816.41;5012920;28;20451;-75
2022/07/06 02:59:53;;;;;;;2.65;1.65;;;;;;;20.47;39.38;92825.84;5013051;28;20045;-74
2022/07/06 03:02:19;;;;;;;5.60;1.77;;;;;;;20.43;39.19;92827.63;5030605;28;20037;-75
2022/07/06 03:04:45;;;;;;;3.15;1.88;;;;;;;20.41;39.33;92825.28;4995843;28;20057;-75
2022/07/06 03:07:12;;;;;;;2.58;1.55;;;;;;;20.35;39.42;92824.78;5009436;28;20415;-75
2022/07/06 03:09:37;;;;;;;3.45;2.08;;;;;;;20.36;39.42;92830.84;4993120;28;20030;-74
2022/07/06 03:12:03;;;;;;;2.55;1.63;;;;;;;20.34;39.31;92833.06;5023259;28;20388;-74
2022/07/06 03:14:31;;;;;;;3.67;1.75;;;;;;;20.32;39.47;92830.75;5016642;28;20037;-77
2022/07/06 03:16:57;;;;;;;5.65;1.70;;;;;;;20.28;39.67;92837.06;5015507;28;20029;-74
2022/07/06 03:19:23;;;;;;;4.65;1.77;;;;;;;20.25;39.71;92845.75;5016499;28;20045;-74
2022/07/06 03:21:48;;;;;;;2.90;1.58;;;;;;;20.22;39.87;92841.06;5016274;28;20041;-75
2022/07/06 03:24:14;;;;;;;6.13;1.77;;;;;;;20.16;40.08;92843.97;5000254;28;20136;-75
2022/07/06 03:26:40;;;;;;;2.83;1.73;;;;;;;20.10;40.50;92847.97;5015725;28;20120;-75
2022/07/06 03:29:05;;;;;;;3.80;1.70;;;;;;;20.06;40.51;92843.66;5002099;28;20041;-75
2022/07/06 03:31:31;;;;;;;3.55;1.65;;;;;;;20.02;40.37;92848.91;5001638;28;20033;-75
2022/07/06 03:33:57;;;;;;;3.28;1.70;;;;;;;20.00;40.50;92850.34;5016429;28;20422;-75
2022/07/06 03:36:23;;;;;;;3.65;1.70;;;;;;;19.95;40.92;92846.03;5015250;28;20041;-75
2022/07/06 03:38:49;;;;;;;5.82;1.70;;;;;;;19.94;40.81;92852.44;4999749;28;20071;-75
2022/07/06 03:41:14;;;;;;;3.42;1.70;;;;;;;19.92;41.02;92852.00;5016046;28;20067;-75
2022/07/06 03:43:41;;;;;;;3.67;1.63;;;;;;;19.85;41.20;92855.22;5000517;28;20044;-75
2022/07/06 03:46:06;;;;;;;4.45;1.75;;;;;;;19.86;41.44;92858.66;5016205;28;20021;-75
2022/07/06 03:48:32;;;;;;;4.22;1.67;;;;;;;19.82;41.27;92853.25;5015581;28;20103;-74
2022/07/06 03:50:58;;;;;;;3.92;1.70;;;;;;;19.80;41.36;92858.13;4984559;28;20496;-77
2022/07/06 03:53:23;;;;;;;3.28;1.70;;;;;;;19.82;41.12;92857.78;5016124;28;20128;-75
2022/07/06 03:58:42;;;;;;;5.63;1.83;;;;;;;19.82;41.09;92866.53;4981151;28;20041;-74
2022/07/06 04:01:08;;;;;;;3.22;1.77;;;;;;;19.82;41.31;92865.75;5015714;28;20043;-74
2022/07/06 04:03:33;;;;;;;4.15;1.83;;;;;;;19.80;41.24;92874.06;5015469;28;20041;-74
2022/07/06 04:05:59;;;;;;;3.65;2.00;;;;;;;19.84;41.76;92876.84;5015521;28;20119;-74
2022/07/06 04:08:25;;;;;;;3.28;1.70;;;;;;;19.78;41.70;92872.84;5014756;28;20067;-75
2022/07/06 04:10:55;;;;;;;4.68;1.77;;;;;;;19.81;42.53;92880.13;5000106;28;20046;-75
2022/07/06 04:13:21;;;;;;;3.38;1.80;;;;;;;19.75;42.33;92883.03;5015207;28;20033;-75
2022/07/06 04:15:47;;;;;;;2.92;1.80;;;;;;;19.71;42.30;92870.75;4998986;28;20060;-75
2022/07/06 04:18:13;;;;;;;3.97;2.10;;;;;;;19.70;42.32;92883.25;5014303;28;20116;-74
2022/07/06 04:20:45;;;;;;;3.00;1.73;;;;;;;19.69;42.40;92881.69;5015346;28;20119;-74
2022/07/06 04:23:11;;;;;;;2.72;1.50;;;;;;;19.75;42.18;92883.03;4998510;28;20045;-75
2022/07/06 04:25:36;;;;;;;3.97;1.80;;;;;;;19.74;41.80;92884.13;5013435;28;20120;-75
2022/07/06 04:28:02;;;;;;;3.28;1.73;;;;;;;19.74;42.04;92880.69;5014745;28;20040;-75
2022/07/06 04:30:30;;;;;;;2.97;1.67;;;;;;;19.76;42.11;92892.53;5013605;28;20140;-74
2022/07/06 04:32:57;;;;;;;5.88;1.80;;;;;;;19.76;42.21;92884.56;5015109;28;20124;-75
2022/07/06 04:35:25;;;;;;;4.07;1.70;;;;;;;19.80;41.80;92883.91;5006470;28;20481;-75
2022/07/06 04:37:52;;;;;;;3.63;1.90;;;;;;;19.90;41.57;92883.44;5015617;28;20045;-74
2022/07/06 04:40:19;;;;;;;3.60;1.85;;;;;;;19.91;41.49;92888.44;5014285;28;20068;-75
2022/07/06 04:42:48;;;;;;;3.05;1.85;;;;;;;19.93;41.14;92888.88;5014309;28;20034;-75
2022/07/06 04:45:14;;;;;;;4.25;2.05;;;;;;;19.99;41.24;92892.06;5013934;28;20088;-75
2022/07/06 04:47:40;;;;;;;4.32;2.03;;;;;;;20.01;41.38;92889.09;5011807;28;20037;-77
2022/07/06 04:50:06;;;;;;;7.55;1.80;;;;;;;20.06;41.25;92886.97;5013075;28;20494;-75
2022/07/06 04:52:32;;;;;;;5.03;1.88;;;;;;;20.11;41.38;92893.94;5014877;28;20048;-75
2022/07/06 04:54:58;;;;;;;4.13;1.80;;;;;;;20.16;41.19;92894.47;5014884;28;20049;-75
2022/07/06 04:57:29;;;;;;;3.50;1.70;;;;;;;20.20;41.16;92896.44;5032894;28;20033;-75
2022/07/06 04:59:56;;;;;;;5.75;1.85;;;;;;;20.16;41.06;92896.38;5012787;28;20124;-75
2022/07/06 05:02:22;;;;;;;3.05;1.65;;;;;;;20.28;41.42;92895.56;4997778;28;20046;-75
2022/07/06 05:04:49;;;;;;;3.35;1.80;;;;;;;20.31;41.46;92902.84;5006996;28;20033;-75
2022/07/06 05:07:14;;;;;;;3.58;1.70;;;;;;;20.36;41.18;92900.75;5014280;28;20087;-75
2022/07/06 05:09:40;;;;;;;3.83;1.80;;;;;;;20.41;40.87;92897.06;5014534;28;20038;-75
2022/07/06 05:12:07;;;;;;;5.32;1.83;;;;;;;20.47;40.61;92901.06;4998317;28;20029;-75
2022/07/06 05:14:33;;;;;;;5.32;1.92;;;;;;;20.51;40.62;92901.13;5014973;28;20083;-75
2022/07/06 05:16:59;;;;;;;3.10;1.80;;;;;;;20.55;40.90;92902.00;5032006;28;20038;-76
2022/07/06 05:19:25;;;;;;;4.28;2.25;;;;;;;20.54;40.90;92903.91;4998006;28;20446;-75
2022/07/06 05:21:51;;;;;;;3.63;1.88;;;;;;;20.56;40.27;92907.03;5014276;28;20038;-75
2022/07/06 05:24:18;;;;;;;3.67;1.90;;;;;;;20.64;40.14;92899.25;5014458;28;20045;-75
2022/07/06 05:26:44;;;;;;;4.30;1.83;;;;;;;20.73;40.25;92902.53;5012615;28;20061;-75
2022/07/06 05:29:10;;;;;;;3.05;1.83;;;;;;;20.80;40.13;92908.03;5014525;28;20472;-75
2022/07/06 05:31:36;;;;;;;3.50;1.90;;;;;;;20.85;40.12;92905.16;4997985;28;20504;-74
2022/07/06 05:34:02;;;;;;;3.20;1.80;;;;;;;20.89;40.21;92900.69;4998166;28;20099;-76
2022/07/06 05:36:28;;;;;;;3.60;1.90;;;;;;;20.96;40.34;92910.72;4997813;28;20029;-77
2022/07/06 05:38:54;;;;;;;3.40;2.00;;;;;;;21.04;39.88;92895.75;5012114;28;20037;-77
2022/07/06 05:41:19;;;;;;;13.75;3.13;;;;;;;21.09;40.32;92906.91;5014310;28;20499;-77
2022/07/06 05:43:45;;;;;;;4.72;2.10;;;;;;;21.16;40.16;92914.28;5032264;28;20056;-77
2022/07/06 05:46:12;;;;;;;4.57;1.90;;;;;;;21.16;40.21;92904.41;4997481;28;20038;-77
2022/07/06 05:51:23;;;;;;;4.60;2.03;;;;;;;21.87;39.58;92917.94;5005837;28;20037;-77
2022/07/06 05:53:49;;;;;;;8.25;2.30;;;;;;;22.63;38.15;92918.47;5032305;28;20032;-77
2022/07/06 05:56:15;;;;;;;4.57;2.20;;;;;;;23.40;36.94;92916.09;5013907;28;20124;-77
2022/07/06 05:58:41;;;;;;;3.67;2.03;;;;;;;24.04;35.64;92913.69;5013788;28;20037;-77
2022/07/06 06:01:07;;;;;;;3.60;1.70;;;;;;;24.73;34.66;92914.25;5014555;28;20533;-77
2022/07/06 06:03:35;;;;;;;3.08;1.90;;;;;;;25.32;33.74;92927.16;4996891;28;20043;-76
2022/07/06 06:06:03;;;;;;;5.38;1.80;;;;;;;25.81;32.86;92918.03;5012849;28;20039;-78
2022/07/06 06:08:28;;;;;;;4.43;1.90;;;;;;;26.23;32.05;92927.56;5028538;28;20021;-75
2022/07/06 06:10:54;;;;;;;4.78;1.85;;;;;;;26.77;31.69;92917.91;4997117;28;20029;-75
2022/07/06 06:13:41;;;;;;;5.10;2.10;;;;;;;27.27;30.54;92917.31;5014427;28;20025;-78
2022/07/06 06:16:06;;;;;;;8.77;2.25;;;;;;;27.58;29.99;92928.50;5011289;28;20044;-80
2022/07/06 06:18:32;;;;;;;4.22;2.05;;;;;;;27.32;29.37;92927.69;5024188;28;20041;-81
2022/07/06 06:20:58;;;;;;;4.28;2.08;;;;;;;26.93;30.60;92938.28;5042239;28;20038;-81
2022/07/06 06:23:23;;;;;;;5.47;2.20;;;;;;;27.36;29.65;92933.09;5041872;28;20090;-81
2022/07/06 06:25:49;;;;;;;6.32;2.20;;;;;;;27.77;29.72;92943.50;5004004;28;20120;-81
2022/07/06 06:28:14;;;;;;;3.83;2.30;;;;;;;27.82;29.13;92935.81;5040831;28;20037;-80
2022/07/06 06:30:40;;;;;;;3.85;1.95;;;;;;;27.98;28.71;92930.06;5019123;28;20085;-80
2022/07/06 06:33:08;;;;;;;6.28;1.90;;;;;;;28.14;28.57;92937.00;5039274;28;20049;-79
2022/07/06 06:35:36;;;;;;;4.30;2.00;;;;;;;28.28;28.02;92942.38;5039615;28;20061;-80
2022/07/06 06:38:02;;;;;;;3.83;2.00;;;;;;;28.19;28.70;92940.06;5039219;28;20503;-79
2022/07/06 06:40:27;;;;;;;3.60;1.92;;;;;;;27.80;28.63;92945.41;5039691;28;20067;-79
2022/07/06 06:42:53;;;;;;;4.03;1.98;;;;;;;27.47;28.48;92943.84;5019276;28;20063;-80
2022/07/06 06:45:18;;;;;;;3.17;1.80;;;;;;;27.34;31.30;92957.66;5020583;28;20041;-79
2022/07/06 06:47:44;;;;;;;3.17;1.75;;;;;;;27.24;29.34;92944.16;5007649;28;20043;-79
2022/07/06 06:50:10;;;;;;;3.83;1.77;;;;;;;27.04;29.80;92955.19;5022747;28;20041;-82
2022/07/06 06:52:35;;;;;;;17.90;3.75;;;;;;;26.67;35.34;92956.19;5038709;28;20037;-79
2022/07/06 06:55:01;;;;;;;12.60;2.97;;;;;;;26.76;33.39;92951.25;5039260;28;20029;-79
2022/07/06 06:57:28;;;;;;;6.53;2.30;;;;;;;26.51;37.65;92958.38;5038798;28;20025;-78
2022/07/06 06:59:54;;;;;;;8.45;3.00;;;;;;;25.91;38.05;92954.91;5037234;28;20531;-78
2022/07/06 07:02:20;;;;;;;15.57;2.40;;;;;;;25.60;41.53;92963.41;5019750;28;20048;-78
2022/07/06 07:04:45;;;;;;;4.93;2.35;;;;;;;25.21;40.42;92969.13;5036632;28;20032;-80
2022/07/06 07:07:11;;;;;;;7.53;2.40;;;;;;;25.11;41.47;92963.28;5001223;28;20044;-76
2022/07/06 07:09:36;;;;;;;7.85;2.55;;;;;;;25.11;40.27;92968.63;5016112;28;20044;-75
2022/07/06 07:12:02;;;;;;;5.40;2.42;;;;;;;25.07;39.84;92967.03;5016731;28;20063;-75
2022/07/06 07:14:28;;;;;;;7.10;2.33;;;;;;;24.84;39.43;92969.84;5034159;28;20049;-76
2022/07/06 07:16:53;;;;;;;8.35;2.83;;;;;;;24.65;43.90;92971.50;5016620;28;20083;-75
2022/07/06 07:19:19;;;;;;;6.00;2.33;;;;;;;24.19;43.54;92968.16;5016848;28;20025;-75
2022/07/06 07:21:44;;;;;;;4.38;2.28;;;;;;;24.17;45.46;92965.84;5035193;28;20045;-75
2022/07/06 07:24:10;;;;;;;8.20;2.88;;;;;;;24.24;45.72;92962.50;5034168;28;20033;-75
2022/07/06 07:26:36;;;;;;;5.95;2.50;;;;;;;24.39;46.61;92968.84;5017605;28;20064;-75
2022/07/06 07:29:02;;;;;;;7.22;2.30;;;;;;;24.35;47.40;92966.09;5017214;28;20042;-75
2022/07/06 07:31:27;;;;;;;6.18;2.50;;;;;;;24.70;46.55;92968.53;5034622;28;20044;-75
2022/07/06 07:33:56;;;;;;;5.68;2.25;;;;;;;24.59;45.50;92967.59;5033930;28;20084;-75
2022/07/06 07:36:23;;;;;;;5.10;2.10;;;;;;;24.48;47.26;92972.81;5016910;28;20135;-75
2022/07/06 07:38:49;;;;;;;5.60;2.50;;;;;;;24.12;48.01;92974.16;5033899;28;20041;-75
2022/07/06 07:41:16;;;;;;;6.45;2.35;;;;;;;24.00;49.54;92969.00;4998425;28;20091;-75
2022/07/06 07:43:42;;;;;;;6.60;2.53;;;;;;;23.92;48.60;92975.38;4999854;28;20438;-75
2022/07/06 07:46:08;;;;;;;7.25;2.40;;;;;;;23.87;47.91;92977.22;5033731;28;20037;-75
2022/07/06 07:48:33;;;;;;;4.65;2.50;;;;;;;23.66;47.48;92980.28;5033876;28;20479;-75
2022/07/06 07:51:00;;;;;;;4.32;2.45;;;;;;;23.60;46.41;92984.38;5014043;28;20071;-75
2022/07/06 07:53:26;;;;;;;3.83;2.13;;;;;;;23.82;48.02;92985.53;5015735;28;20099;-75
2022/07/06 07:55:52;;;;;;;12.38;3.72;;;;;;;24.04;46.91;92985.88;5033744;28;20071;-75
2022/07/06 07:58:18;;;;;;;5.30;2.30;;;;;;;24.17;43.25;92992.56;5015725;28;20041;-75
2022/07/06 08:00:44;;;;;;;4.10;2.10;;;;;;;24.19;43.26;92981.53;5015811;28;20395;-75
2022/07/06 08:03:10;;;;;;;5.07;2.40;;;;;;;24.02;41.44;92993.47;5000957;28;20025;-75
2022/07/06 08:05:35;;;;;;;4.13;2.35;;;;;;;24.11;40.53;92991.34;4979708;28;20149;-75
2022/07/06 08:08:01;;;;;;;4.68;2.38;;;;;;;24.49;39.44;92995.75;4996071;28;20049;-75
2022/07/06 08:10:26;;;;;;;5.88;2.33;;;;;;;24.54;38.67;92996.56;5013548;28;20511;-75
2022/07/06 08:12:52;;;;;;;5.57;2.47;;;;;;;24.38;40.74;92999.38;5013556;28;20513;-75
2022/07/06 08:15:18;;;;;;;3.92;2.20;;;;;;;24.63;40.41;92995.19;5014494;28;20037;-75
2022/07/06 08:17:44;;;;;;;6.50;2.30;;;;;;;24.69;40.09;92993.72;4996002;28;20026;-75
2022/07/06 08:20:10;;;;;;;4.55;2.33;;;;;;;24.94;40.30;92999.41;4980433;28;20507;-75
2022/07/06 08:22:36;;;;;;;5.88;2.50;;;;;;;24.95;39.24;93000.19;5013415;28;20038;-75
2022/07/06 08:25:02;;;;;;;5.68;2.60;;;;;;;25.14;39.45;93002.72;5014364;28;20375;-75
2022/07/06 08:27:27;;;;;;;6.38;2.40;;;;;;;25.35;39.36;93006.78;4995765;28;20045;-75
2022/07/06 08:29:53;;;;;;;5.43;2.60;;;;;;;24.86;41.43;93008.50;5015683;28;20558;-75
2022/07/06 08:32:19;;;;;;;6.20;2.58;;;;;;;24.97;40.40;93011.31;5014156;28;20486;-75
2022/07/06 08:34:46;;;;;;;8.38;2.75;;;;;;;25.19;38.71;93003.56;5032626;28;20053;-75
2022/07/06 08:37:12;;;;;;;7.20;2.45;;;;;;;25.14;40.67;93007.28;5032752;28;20402;-76
2022/07/06 08:39:37;;;;;;;6.38;2.50;;;;;;;25.31;41.44;93012.13;5015110;28;20060;-75
2022/07/06 08:42:03;;;;;;;6.55;2.63;;;;;;;25.51;40.07;93012.72;5014777;28;20045;-75
2022/07/06 08:44:29;;;;;;;7.03;2.92;;;;;;;25.64;39.15;93013.22;5032901;28;20072;-76
2022/07/06 08:46:58;;;;;;;6.38;2.55;;;;;;;25.80;39.23;93020.28;4998879;28;20052;-76
2022/07/06 08:49:24;;;;;;;6.20;2.45;;;;;;;25.98;38.24;93015.09;5032533;28;20048;-76
2022/07/06 08:51:51;;;;;;;10.68;2.95;;;;;;;26.18;38.53;93017.19;5014659;28;20033;-75
2022/07/06 08:54:18;;;;;;;9.02;3.03;;;;;;;26.08;38.43;93017.13;5032470;28;20503;-75
2022/07/06 08:56:43;;;;;;;9.48;2.60;;;;;;;25.68;39.26;93013.28;5032255;28;20056;-75
2022/07/06 08:59:10;;;;;;;4.75;2.60;;;;;;;25.41;39.06;93021.41;5014974;28;20464;-75
2022/07/06 09:01:38;;;;;;;4.40;2.60;;;;;;;25.60;39.72;93012.44;5014867;28;20677;-75
2022/07/06 09:04:09;;;;;;;5.03;2.72;;;;;;;25.64;40.42;93015.91;5032163;28;20030;-75
2022/07/06 09:06:36;;;;;;;9.57;3.17;;;;;;;25.83;40.63;93012.28;5031900;28;20073;-75
2022/07/06 09:09:06;;;;;;;9.10;2.78;;;;;;;25.51;39.51;93004.69;5031613;28;20044;-76
2022/07/06 09:11:32;;;;;;;6.10;3.33;;;;;;;25.61;41.45;93013.97;5015224;28;20075;-76
2022/07/06 09:13:58;;;;;;;5.57;2.92;;;;;;;25.20;40.80;93007.78;5014211;28;20072;-75
2022/07/06 09:16:29;;;;;;;7.95;2.80;;;;;;;24.99;42.32;93008.25;5014476;28;20112;-75
2022/07/06 09:18:56;;;;;;;6.63;2.80;;;;;;;25.00;43.08;93015.94;5025937;28;20048;-75
2022/07/06 09:21:25;;;;;;;7.40;2.90;;;;;;;24.95;41.63;93010.91;5032237;28;20037;-75
2022/07/06 09:23:57;;;;;;;9.43;3.13;;;;;;;25.01;43.27;93004.06;5031818;28;20025;-75
2022/07/06 09:26:23;;;;;;;8.20;3.00;;;;;;;24.96;44.22;93009.75;5031731;28;20029;-75
2022/07/06 09:28:49;;;;;;;6.72;2.70;;;;;;;25.17;41.84;93006.56;5013981;28;20033;-76
2022/07/06 09:31:15;;;;;;;7.60;3.10;;;;;;;25.25;41.85;93012.81;5014265;28;20044;-75
2022/07/06 09:34:02;;;;;;;9.45;3.15;;;;;;;25.58;41.66;93011.25;5031694;28;20045;-76
2022/07/06 09:36:45;;;;;;;7.93;2.92;;;;;;;25.77;41.33;93011.81;5014063;28;20030;-75
2022/07/06 09:39:28;;;;;;;6.32;2.90;;;;;;;25.69;41.05;93010.22;5030425;28;20053;-76
2022/07/06 09:41:56;;;;;;;5.40;3.15;;;;;;;25.90;41.09;93012.38;5031338;28;20506;-75
2022/07/06 09:44:29;;;;;;;8.60;3.40;;;;;;;25.66;42.22;93012.88;5031480;28;20091;-75
2022/07/06 09:47:00;;;;;;;11.15;3.20;;;;;;;25.72;44.33;93008.72;5031586;28;20037;-76
2022/07/06 09:49:26;;;;;;;9.85;3.58;;;;;;;26.00;40.51;93008.22;5013408;28;20159;-76
2022/07/06 09:51:55;;;;;;;8.10;3.50;;;;;;;26.12;40.92;93010.63;5031222;28;20080;-75
2022/07/06 09:54:21;;;;;;;7.85;3.03;;;;;;;26.18;40.82;93011.06;5031262;28;20080;-76
2022/07/06 09:56:51;;;;;;;6.90;3.28;;;;;;;26.44;40.09;93003.97;5013821;28;20085;-76
2022/07/06 09:59:21;;;;;;;5.88;3.42;;;;;;;26.08;41.02;93003.72;4997044;28;20059;-75
2022/07/06 10:01:50;;;;;;;6.75;3.30;;;;;;;25.91;40.79;93005.84;5013031;28;20087;-75
2022/07/06 10:04:18;;;;;;;5.80;3.03;;;;;;;25.79;40.65;93000.75;5013465;28;20041;-75
2022/07/06 10:06:44;;;;;;;6.78;3.30;;;;;;;25.69;41.23;93002.19;5031097;28;20041;-75
2022/07/06 10:09:11;;;;;;;5.55;3.17;;;;;;;26.01;41.72;93006.31;5031242;28;20109;-75
2022/07/06 10:11:47;;;;;;;10.48;4.00;;;;;;;25.76;40.24;92998.81;5012991;28;20515;-75
2022/07/06 10:14:16;;;;;;;6.57;3.55;;;;;;;25.86;42.00;93003.47;5013143;28;20136;-75
2022/07/06 10:16:43;;;;;;;7.45;3.85;;;;;;;25.93;42.14;92997.44;5031950;28;20503;-78
2022/07/06 10:19:09;;;;;;;5.07;3.25;;;;;;;25.92;39.57;93001.28;5033112;28;20048;-77
2022/07/06 10:21:39;;;;;;;8.25;3.50;;;;;;;25.30;41.65;92993.72;4998441;28;20518;-78
2022/07/06 10:24:06;;;;;;;9.23;3.60;;;;;;;25.77;41.98;92989.59;4982521;28;20098;-77
2022/07/06 10:26:34;;;;;;;9.00;3.75;;;;;;;25.83;42.30;92992.75;5042822;28;20089;-78
2022/07/06 10:29:01;;;;;;;8.05;3.83;;;;;;;26.16;43.39;92991.88;5021259;28;20048;-78
2022/07/06 10:31:30;;;;;;;7.78;3.63;;;;;;;26.30;42.14;92986.63;5016265;28;20116;-79
2022/07/06 10:33:58;;;;;;;7.25;3.28;;;;;;;26.45;40.24;92981.34;5017432;28;20103;-78
2022/07/06 10:36:25;;;;;;;7.60;3.17;;;;;;;26.58;40.60;92985.28;5013280;28;20608;-78
2022/07/06 10:38:52;;;;;;;5.82;3.45;;;;;;;26.52;40.15;92984.06;5014330;28;20443;-78
2022/07/06 10:41:19;;;;;;;5.47;3.30;;;;;;;26.48;39.36;92980.59;5031719;28;20039;-76
2022/07/06 10:43:46;;;;;;;6.53;3.95;;;;;;;26.15;38.35;92976.94;5043414;28;20041;-75
2022/07/06 10:46:17;;;;;;;5.97;3.72;;;;;;;25.96;39.61;92978.72;5051344;28;20029;-75
2022/07/06 10:48:48;;;;;;;9.83;3.80;;;;;;;26.13;40.95;92974.63;5011461;28;20453;-75
2022/07/06 10:51:25;;;;;;;6.70;3.58;;;;;;;26.26;41.87;92977.78;5031117;28;20048;-75
2022/07/06 10:53:59;;;;;;;5.78;3.42;;;;;;;26.11;39.81;92971.53;5012466;28;20022;-76
2022/07/06 10:56:39;;;;;;;8.70;4.47;;;;;;;25.84;41.10;92981.63;5030351;28;20093;-75
2022/07/06 10:59:29;;;;;;;6.43;3.58;;;;;;;25.95;42.51;92968.34;5030496;28;20037;-75
2022/07/06 11:02:19;;;;;;;7.13;3.50;;;;;;;26.16;41.17;92967.72;5029087;28;20033;-76
2022/07/06 11:04:47;;;;;;;7.07;3.85;;;;;;;26.05;39.01;92972.25;5029983;28;20072;-75
2022/07/06 11:07:15;;;;;;;8.15;3.45;;;;;;;26.05;39.19;92977.59;5029049;28;20410;-76
2022/07/06 11:09:47;;;;;;;7.35;3.67;;;;;;;25.86;39.64;92976.66;5012182;28;20436;-75
2022/07/06 11:12:20;;;;;;;8.20;3.20;;;;;;;26.05;41.69;92964.19;5047686;28;20076;-75
2022/07/06 11:14:47;;;;;;;7.03;3.67;;;;;;;25.89;39.73;92975.94;5011778;28;20511;-78
2022/07/06 11:17:13;;;;;;;6.63;3.50;;;;;;;26.17;40.41;92971.97;5032085;28;20049;-77
2022/07/06 11:19:56;;;;;;;6.88;3.60;;;;;;;25.69;39.07;92974.59;5015399;28;20117;-78
2022/07/06 11:22:24;;;;;;;12.05;3.80;;;;;;;25.76;41.02;92963.94;5015287;28;20068;-77
2022/07/06 11:24:51;;;;;;;6.43;3.72;;;;;;;25.68;40.91;92965.78;5014861;28;20045;-78
2022/07/06 11:27:17;;;;;;;6.32;3.50;;;;;;;25.73;41.05;92972.72;4983069;28;20131;-77
2022/07/06 11:29:44;;;;;;;8.38;3.85;;;;;;;25.89;39.41;92959.09;5014189;28;20033;-77
2022/07/06 11:32:13;;;;;;;7.57;3.50;;;;;;;26.02;38.93;92962.28;5001446;28;20026;-77
2022/07/06 11:34:43;;;;;;;5.03;3.60;;;;;;;26.10;37.90;92963.88;5034831;28;20037;-78
2022/07/06 11:37:14;;;;;;;5.68;3.40;;;;;;;26.26;35.42;92963.59;5043625;28;20064;-78
2022/07/06 11:39:44;;;;;;;10.40;3.45;;;;;;;26.17;35.14;92959.31;5040402;28;20495;-79